createdAt,value
2023-04-22T00:02:14.732Z,17.50
2023-04-22T00:04:42.943Z,17.40
2023-04-22T00:07:13.186Z,17.40
2023-04-22T00:09:41.250Z,17.40
2023-04-22T00:12:11.966Z,17.40
2023-04-22T00:14:40.051Z,17.30
2023-04-22T00:17:08.786Z,17.30
2023-04-22T00:19:37.493Z,17.30
2023-04-22T00:22:06.231Z,17.30
2023-04-22T00:24:36.111Z,17.20
2023-04-22T00:27:04.422Z,17.20
2023-04-22T00:29:32.950Z,17.20
2023-04-22T00:32:01.018Z,17.20
2023-04-22T00:34:29.556Z,17.10
2023-04-22T00:36:58.281Z,17.10
2023-04-22T00:39:26.396Z,17.10
2023-04-22T00:41:57.235Z,17.10
2023-04-22T00:44:26.525Z,17.00
2023-04-22T00:46:55.165Z,17.00
2023-04-22T00:49:24.146Z,17.00
2023-04-22T00:51:52.205Z,16.90
2023-04-22T00:54:20.811Z,16.90
2023-04-22T00:56:49.373Z,16.80
2023-04-22T00:59:19.369Z,16.80
2023-04-22T01:01:48.181Z,16.70
2023-04-22T01:04:16.606Z,16.70
2023-04-22T01:06:45.427Z,16.70
2023-04-22T01:09:14.363Z,16.60
2023-04-22T01:11:43.795Z,16.60
2023-04-22T01:14:11.867Z,16.60
2023-04-22T01:16:43.999Z,16.60
2023-04-22T01:19:13.434Z,16.50
2023-04-22T01:21:45.822Z,16.50
2023-04-22T01:24:15.901Z,16.50
2023-04-22T01:26:44.324Z,16.50
2023-04-22T01:29:13.054Z,16.40
2023-04-22T01:31:41.418Z,16.40
2023-04-22T01:34:10.020Z,16.40
2023-04-22T01:36:38.624Z,16.40
2023-04-22T01:39:07.913Z,16.30
2023-04-22T01:41:38.211Z,16.30
2023-04-22T01:44:06.270Z,16.20
2023-04-22T01:46:35.312Z,16.20
2023-04-22T01:49:03.970Z,16.10
2023-04-22T01:51:32.910Z,16.10
2023-04-22T01:54:03.935Z,16.10
2023-04-22T01:56:32.470Z,16.10
2023-04-22T01:59:02.060Z,16.10
2023-04-22T02:01:30.714Z,16.10
2023-04-22T02:03:58.837Z,16.00
2023-04-22T02:06:27.955Z,16.00
2023-04-22T02:08:56.503Z,16.00
2023-04-22T02:11:24.567Z,16.00
2023-04-22T02:13:53.095Z,16.00
2023-04-22T02:16:22.623Z,16.00
2023-04-22T02:18:51.309Z,16.00
2023-04-22T02:21:19.388Z,15.90
2023-04-22T02:23:48.009Z,15.90
2023-04-22T02:26:16.542Z,15.90
2023-04-22T02:28:45.084Z,15.90
2023-04-22T02:31:13.726Z,15.80
2023-04-22T02:33:43.149Z,15.80
2023-04-22T02:36:11.923Z,15.70
2023-04-22T02:38:40.076Z,15.70
2023-04-22T02:41:08.652Z,15.70
2023-04-22T02:43:37.172Z,15.60
2023-04-22T02:46:05.279Z,15.60
2023-04-22T02:48:33.833Z,15.60
2023-04-22T02:51:03.342Z,15.60
2023-04-22T02:53:31.889Z,15.50
2023-04-22T02:56:00.563Z,15.50
2023-04-22T02:58:29.202Z,15.50
2023-04-22T03:00:58.157Z,15.50
2023-04-22T03:03:26.736Z,15.40
2023-04-22T03:05:55.530Z,15.40
2023-04-22T03:08:26.909Z,15.40
2023-04-22T03:10:55.428Z,15.30
2023-04-22T03:13:23.464Z,15.30
2023-04-22T03:15:52.001Z,15.30
2023-04-22T03:18:20.081Z,15.30
2023-04-22T03:20:48.740Z,15.30
2023-04-22T03:23:17.349Z,15.30
2023-04-22T03:25:46.831Z,15.30
2023-04-22T03:28:15.796Z,15.30
2023-04-22T03:30:43.892Z,15.30
2023-04-22T03:33:13.360Z,15.30
2023-04-22T03:35:41.447Z,15.20
2023-04-22T03:38:09.991Z,15.20
2023-04-22T03:40:38.600Z,15.20
2023-04-22T03:43:08.567Z,15.20
2023-04-22T03:45:37.045Z,15.20
2023-04-22T03:48:05.625Z,15.20
2023-04-22T03:50:34.949Z,15.10
2023-04-22T03:53:02.985Z,15.10
2023-04-22T03:55:31.502Z,15.10
2023-04-22T03:58:00.361Z,15.10
2023-04-22T04:00:30.311Z,15.10
2023-04-22T04:02:59.009Z,15.10
2023-04-22T04:05:27.758Z,15.10
2023-04-22T04:07:56.603Z,15.10
2023-04-22T04:10:25.154Z,15.10
2023-04-22T04:12:53.187Z,15.10
2023-04-22T04:15:21.924Z,15.10
2023-04-22T04:17:52.151Z,15.10
2023-04-22T04:20:20.509Z,15.10
2023-04-22T04:22:49.048Z,15.10
2023-04-22T04:25:18.347Z,15.10
2023-04-22T04:27:46.925Z,15.10
2023-04-22T04:30:16.406Z,15.10
2023-04-22T04:32:46.166Z,15.10
2023-04-22T04:35:16.548Z,15.10
2023-04-22T04:37:45.644Z,15.10
2023-04-22T04:40:14.232Z,15.10
2023-04-22T04:42:42.481Z,15.10
2023-04-22T04:45:11.753Z,15.10
2023-04-22T04:47:40.352Z,15.10
2023-04-22T04:50:09.784Z,15.10
2023-04-22T04:52:39.221Z,15.10
2023-04-22T04:55:08.228Z,15.10
2023-04-22T04:57:38.382Z,15.00
2023-04-22T05:00:08.873Z,15.00
2023-04-22T05:02:37.824Z,15.10
2023-04-22T05:05:06.723Z,15.00
2023-04-22T05:07:35.356Z,15.00
2023-04-22T05:10:05.552Z,15.00
2023-04-22T05:12:34.251Z,15.00
2023-04-22T05:15:02.841Z,15.00
2023-04-22T05:17:31.721Z,15.00
2023-04-22T05:19:59.796Z,15.00
2023-04-22T05:22:27.921Z,15.00
2023-04-22T05:24:56.042Z,15.00
2023-04-22T05:27:26.168Z,15.00
2023-04-22T05:29:54.719Z,15.00
2023-04-22T05:32:23.570Z,15.10
2023-04-22T05:34:51.672Z,15.10
2023-04-22T05:37:20.295Z,15.10
2023-04-22T05:39:48.347Z,15.10
2023-04-22T05:42:16.883Z,15.10
2023-04-22T05:44:46.318Z,15.10
2023-04-22T05:47:14.924Z,15.10
2023-04-22T05:49:43.459Z,15.20
2023-04-22T05:52:12.024Z,15.20
2023-04-22T05:54:40.691Z,15.20
2023-04-22T05:57:09.329Z,15.20
2023-04-22T05:59:37.951Z,15.30
2023-04-22T06:02:07.565Z,15.30
2023-04-22T06:04:37.771Z,15.30
2023-04-22T06:07:06.453Z,15.40
2023-04-22T06:09:35.032Z,15.40
2023-04-22T06:12:03.617Z,15.40
2023-04-22T06:14:31.645Z,15.50
2023-04-22T06:17:00.222Z,15.50
2023-04-22T06:19:30.340Z,15.60
2023-04-22T06:21:58.399Z,15.60
2023-04-22T06:24:26.925Z,15.60
2023-04-22T06:26:55.021Z,15.70
2023-04-22T06:29:23.561Z,15.70
2023-04-22T06:31:52.200Z,15.70
2023-04-22T06:34:20.352Z,15.80
2023-04-22T06:36:50.263Z,15.80
2023-04-22T06:39:18.782Z,15.80
2023-04-22T06:41:46.825Z,15.90
2023-04-22T06:44:15.357Z,15.90
2023-04-22T06:46:43.462Z,16.00
2023-04-22T06:49:11.987Z,16.00
2023-04-22T06:51:40.035Z,16.10
2023-04-22T06:54:09.909Z,16.10
2023-04-22T06:56:38.629Z,16.10
2023-04-22T06:59:07.757Z,16.20
2023-04-22T07:01:36.371Z,16.30
2023-04-22T07:04:04.573Z,16.30
2023-04-22T07:06:33.099Z,16.30
2023-04-22T07:09:01.474Z,16.40
2023-04-22T07:11:31.519Z,16.40
2023-04-22T07:13:59.801Z,16.40
2023-04-22T07:16:28.592Z,16.50
2023-04-22T07:18:57.304Z,16.50
2023-04-22T07:21:25.407Z,16.50
2023-04-22T07:23:53.483Z,16.50
2023-04-22T07:26:21.842Z,16.60
2023-04-22T07:28:51.492Z,16.60
2023-04-22T07:31:19.596Z,16.60
2023-04-22T07:33:48.082Z,16.70
2023-04-22T07:36:16.243Z,16.70
2023-04-22T07:38:44.318Z,16.70
2023-04-22T07:41:12.410Z,16.70
2023-04-22T07:43:40.472Z,16.70
2023-04-22T07:46:09.975Z,16.70
2023-04-22T07:48:38.110Z,16.80
2023-04-22T07:51:06.604Z,16.80
2023-04-22T07:53:34.690Z,16.80
2023-04-22T07:56:03.579Z,16.90
2023-04-22T07:58:31.638Z,16.90
2023-04-22T08:00:59.698Z,16.90
2023-04-22T08:03:29.427Z,17.00
2023-04-22T08:05:58.378Z,17.00
2023-04-22T08:08:27.042Z,17.00
2023-04-22T08:10:55.093Z,17.00
2023-04-22T08:13:23.169Z,17.10
2023-04-22T08:15:51.305Z,17.10
2023-04-22T08:18:19.492Z,17.10
2023-04-22T08:20:48.989Z,17.20
2023-04-22T08:23:17.052Z,17.20
2023-04-22T08:25:45.217Z,17.30
2023-04-22T08:28:13.272Z,17.30
2023-04-22T08:30:41.394Z,17.40
2023-04-22T08:33:09.571Z,17.40
2023-04-22T08:35:37.969Z,17.50
2023-04-22T08:38:07.444Z,17.50
2023-04-22T08:40:36.166Z,17.60
2023-04-22T08:43:05.153Z,17.70
2023-04-22T08:45:33.711Z,17.70
2023-04-22T08:48:03.249Z,17.80
2023-04-22T08:50:32.953Z,17.90
2023-04-22T08:53:01.067Z,17.90
2023-04-22T08:55:31.070Z,18.00
2023-04-22T08:58:01.609Z,19.30
2023-04-22T09:00:29.840Z,18.10
2023-04-22T09:03:00.973Z,18.10
2023-04-22T09:05:30.539Z,18.10
2023-04-22T09:07:59.055Z,18.20
2023-04-22T09:10:28.469Z,18.20
2023-04-22T09:12:58.417Z,18.20
2023-04-22T09:15:27.804Z,18.20
2023-04-22T09:17:56.836Z,18.20
2023-04-22T09:20:28.926Z,18.30
2023-04-22T09:22:59.095Z,18.30
2023-04-22T09:25:28.885Z,18.30
2023-04-22T09:28:00.136Z,18.30
2023-04-22T09:30:30.035Z,18.40
2023-04-22T09:32:59.559Z,18.40
2023-04-22T09:35:29.231Z,18.40
2023-04-22T09:37:57.505Z,18.50
2023-04-22T09:40:26.044Z,18.50
2023-04-22T09:42:56.061Z,18.60
2023-04-22T09:45:33.340Z,18.60
2023-04-22T09:48:04.306Z,18.60
2023-04-22T09:50:32.366Z,18.70
2023-04-22T09:53:02.733Z,18.70
2023-04-22T09:55:33.210Z,18.80
2023-04-22T09:58:07.912Z,18.80
2023-04-22T10:00:41.188Z,18.90
2023-04-22T10:03:10.734Z,19.00
2023-04-22T10:05:39.371Z,19.00
2023-04-22T10:08:08.725Z,19.10
2023-04-22T10:10:37.871Z,19.20
2023-04-22T10:13:06.904Z,19.30
2023-04-22T10:15:38.848Z,19.40
2023-04-22T10:18:09.754Z,19.40
2023-04-22T10:20:39.003Z,19.50
2023-04-22T10:23:12.978Z,19.60
2023-04-22T10:25:41.451Z,19.60
2023-04-22T10:28:11.116Z,19.60
2023-04-22T10:30:41.136Z,19.70
2023-04-22T10:33:39.948Z,19.80
2023-04-22T10:36:16.571Z,19.90
2023-04-22T10:39:22.206Z,20.00
2023-04-22T10:42:10.488Z,20.10
2023-04-22T10:44:52.814Z,20.30
2023-04-22T10:47:30.555Z,20.40
2023-04-22T10:50:21.202Z,20.40
2023-04-22T10:52:51.671Z,20.50
2023-04-22T10:55:20.307Z,20.70
2023-04-22T10:57:50.015Z,20.80
2023-04-22T11:00:53.285Z,20.90
2023-04-22T11:03:30.135Z,21.00
2023-04-22T11:06:18.248Z,21.20
2023-04-22T11:08:47.540Z,21.30
2023-04-22T11:11:17.685Z,21.50
2023-04-22T11:13:47.513Z,21.50
2023-04-22T11:16:15.729Z,21.60
2023-04-22T11:18:48.796Z,21.70
2023-04-22T11:21:17.281Z,21.80
2023-04-22T11:23:52.337Z,21.90
2023-04-22T11:26:33.708Z,22.00
2023-04-22T11:29:01.819Z,22.10
2023-04-22T11:31:30.022Z,22.20
2023-04-22T11:34:01.787Z,22.30
2023-04-22T11:36:30.040Z,22.40
2023-04-22T11:38:58.290Z,22.50
2023-04-22T11:41:26.411Z,22.60
2023-04-22T11:43:55.615Z,22.70
2023-04-22T11:46:30.412Z,22.80
2023-04-22T11:49:18.271Z,23.00
2023-04-22T11:51:56.431Z,23.10
2023-04-22T11:54:32.537Z,23.20
2023-04-22T11:57:04.419Z,23.40
2023-04-22T11:59:32.530Z,23.50
2023-04-22T12:02:00.697Z,23.60
2023-04-22T12:04:30.152Z,23.70
2023-04-22T12:06:58.529Z,23.70
2023-04-22T12:09:26.850Z,23.80
2023-04-22T12:11:54.949Z,23.70
2023-04-22T12:14:32.628Z,23.70
2023-04-22T12:17:04.298Z,23.70
2023-04-22T12:19:33.754Z,23.70
2023-04-22T12:22:02.231Z,23.70
2023-04-22T12:24:31.126Z,23.70
2023-04-22T12:26:59.684Z,23.80
2023-04-22T12:29:33.122Z,23.90
2023-04-22T12:32:01.573Z,24.00
2023-04-22T12:34:29.651Z,24.00
2023-04-22T12:36:59.836Z,24.10
2023-04-22T12:39:27.926Z,24.10
2023-04-22T12:41:55.985Z,24.10
2023-04-22T12:44:25.160Z,24.10
2023-04-22T12:46:53.656Z,24.20
2023-04-22T12:49:21.854Z,24.20
2023-04-22T12:51:50.145Z,24.20
2023-04-22T12:54:20.448Z,24.30
2023-04-22T12:56:49.401Z,24.30
2023-04-22T12:59:17.466Z,24.30
2023-04-22T13:01:45.648Z,24.40
2023-04-22T13:04:13.933Z,24.50
2023-04-22T13:06:44.244Z,24.60
2023-04-22T13:09:13.014Z,24.70
2023-04-22T13:11:42.497Z,24.80
2023-04-22T13:14:11.427Z,24.80
2023-04-22T13:16:39.733Z,24.90
2023-04-22T13:19:07.951Z,25.00
2023-04-22T13:21:36.308Z,25.10
2023-04-22T13:24:04.469Z,25.20
2023-04-22T13:26:32.569Z,25.30
2023-04-22T13:29:02.887Z,25.40
2023-04-22T13:31:31.179Z,25.60
2023-04-22T13:33:59.257Z,25.80
2023-04-22T13:36:27.854Z,25.90
2023-04-22T13:38:56.066Z,26.10
2023-04-22T13:41:24.092Z,26.30
2023-04-22T13:43:54.405Z,26.40
2023-04-22T13:46:23.962Z,26.60
2023-04-22T13:48:52.113Z,26.70
2023-04-22T13:51:20.265Z,26.80
2023-04-22T13:53:48.337Z,27.00
2023-04-22T13:56:16.440Z,27.10
2023-04-22T13:58:44.519Z,27.30
2023-04-22T14:01:12.620Z,27.40
2023-04-22T14:03:42.196Z,27.40
2023-04-22T14:06:10.888Z,27.60
2023-04-22T14:08:39.536Z,27.70
2023-04-22T14:11:08.745Z,27.80
2023-04-22T14:13:37.321Z,27.90
2023-04-22T14:16:09.759Z,28.00
2023-04-22T14:18:39.465Z,28.10
2023-04-22T14:21:10.392Z,28.20
2023-04-22T14:23:39.573Z,28.30
2023-04-22T14:26:08.529Z,28.30
2023-04-22T14:28:39.048Z,28.50
2023-04-22T14:31:07.365Z,28.60
2023-04-22T14:33:35.593Z,28.60
2023-04-22T14:36:03.702Z,28.70
2023-04-22T14:38:33.174Z,28.80
2023-04-22T14:41:01.216Z,28.90
2023-04-22T14:43:29.834Z,29.00
2023-04-22T14:45:59.094Z,29.20
2023-04-22T14:48:30.837Z,29.20
2023-04-22T14:50:59.879Z,29.30
2023-04-22T14:53:28.181Z,29.40
2023-04-22T14:55:57.655Z,29.50
2023-04-22T14:58:27.083Z,29.50
2023-04-22T15:00:55.149Z,29.60
2023-04-22T15:03:23.911Z,29.60
2023-04-22T15:05:52.973Z,29.60
2023-04-22T15:08:21.626Z,29.70
2023-04-22T15:10:50.155Z,29.80
2023-04-22T15:13:20.015Z,29.80
2023-04-22T15:15:48.614Z,29.80
2023-04-22T15:18:17.209Z,29.80
2023-04-22T15:20:45.545Z,29.80
2023-04-22T15:23:14.061Z,29.60
2023-04-22T15:25:42.664Z,29.50
2023-04-22T15:28:11.237Z,29.40
2023-04-22T15:30:40.743Z,29.30
2023-04-22T15:33:09.311Z,29.10
2023-04-22T15:35:37.880Z,28.90
2023-04-22T15:38:06.933Z,28.70
2023-04-22T15:40:35.453Z,28.60
2023-04-22T15:43:04.085Z,28.50
2023-04-22T15:45:32.193Z,28.40
2023-04-22T15:48:02.167Z,28.40
2023-04-22T15:50:30.283Z,28.30
2023-04-22T15:52:58.484Z,28.10
2023-04-22T15:55:26.597Z,28.00
2023-04-22T15:57:55.170Z,27.90
2023-04-22T16:00:23.744Z,27.70
2023-04-22T16:02:55.855Z,27.50
2023-04-22T16:05:25.982Z,27.40
2023-04-22T16:07:55.006Z,27.20
2023-04-22T16:10:23.745Z,27.00
2023-04-22T16:12:51.907Z,26.90
2023-04-22T16:15:20.569Z,26.80
2023-04-22T16:17:49.320Z,26.60
2023-04-22T16:20:17.869Z,26.50
2023-04-22T16:22:47.280Z,26.30
2023-04-22T16:25:15.670Z,26.20
2023-04-22T16:27:43.707Z,26.10
2023-04-22T16:30:15.608Z,25.90
2023-04-22T16:32:44.288Z,25.80
2023-04-22T16:35:12.804Z,25.70
2023-04-22T16:37:41.435Z,25.60
2023-04-22T16:40:11.682Z,25.50
2023-04-22T16:42:40.234Z,25.40
2023-04-22T16:45:08.963Z,25.30
2023-04-22T16:47:37.501Z,25.20
2023-04-22T16:50:06.369Z,25.10
2023-04-22T16:52:35.125Z,25.10
2023-04-22T16:55:03.845Z,25.00
2023-04-22T16:57:33.254Z,24.90
2023-04-22T17:00:01.784Z,24.90
2023-04-22T17:02:30.881Z,24.80
2023-04-22T17:05:01.619Z,24.80
2023-04-22T17:07:29.738Z,24.80
2023-04-22T17:09:58.326Z,24.70
2023-04-22T17:12:26.440Z,24.60
2023-04-22T17:14:55.915Z,24.60
2023-04-22T17:17:24.482Z,24.60
2023-04-22T17:19:52.552Z,24.50
2023-04-22T17:22:21.131Z,24.50
2023-04-22T17:24:49.183Z,24.40
2023-04-22T17:27:17.705Z,24.40
2023-04-22T17:29:46.572Z,24.30
2023-04-22T17:32:16.254Z,24.30
2023-04-22T17:34:44.329Z,24.20
2023-04-22T17:37:12.456Z,24.20
2023-04-22T17:39:42.357Z,24.20
2023-04-22T17:42:10.473Z,24.10
2023-04-22T17:44:38.693Z,24.00
2023-04-22T17:47:07.737Z,24.00
2023-04-22T17:49:37.285Z,23.90
2023-04-22T17:52:05.985Z,23.90
2023-04-22T17:54:34.043Z,23.80
2023-04-22T17:57:02.189Z,23.80
2023-04-22T17:59:30.216Z,23.80
2023-04-22T18:02:00.234Z,23.70
2023-04-22T18:04:29.559Z,23.70
2023-04-22T18:06:59.565Z,23.70
2023-04-22T18:09:27.950Z,23.60
2023-04-22T18:11:58.851Z,23.60
2023-04-22T18:14:27.567Z,23.50
2023-04-22T18:16:55.686Z,23.50
2023-04-22T18:19:23.831Z,23.50
2023-04-22T18:21:59.479Z,23.40
2023-04-22T18:24:30.192Z,23.40
2023-04-22T18:26:58.371Z,23.30
2023-04-22T18:29:27.224Z,23.30
2023-04-22T18:31:55.338Z,23.20
2023-04-22T18:34:23.676Z,23.20
2023-04-22T18:36:51.747Z,23.10
2023-04-22T18:39:20.278Z,23.10
2023-04-22T18:41:49.767Z,23.10
2023-04-22T18:44:19.549Z,23.00
2023-04-22T18:46:48.101Z,23.00
2023-04-22T18:49:16.176Z,23.00
2023-04-22T18:51:44.299Z,22.90
2023-04-22T18:54:12.910Z,22.90
2023-04-22T18:56:40.965Z,22.80
2023-04-22T18:59:10.400Z,22.80
2023-04-22T19:01:38.562Z,22.80
2023-04-22T19:04:08.176Z,22.70
2023-04-22T19:06:36.444Z,22.70
2023-04-22T19:09:05.336Z,22.60
2023-04-22T19:11:33.501Z,22.60
2023-04-22T19:14:03.402Z,22.60
2023-04-22T19:16:33.332Z,22.50
2023-04-22T19:19:01.432Z,22.50
2023-04-22T19:21:30.484Z,22.50
2023-04-22T19:23:59.330Z,22.40
2023-04-22T19:26:29.694Z,22.40
2023-04-22T19:28:58.257Z,22.40
2023-04-22T19:31:28.303Z,22.40
2023-04-22T19:34:04.400Z,22.30
2023-04-22T19:36:32.456Z,22.30
2023-04-22T19:39:00.973Z,22.30
2023-04-22T19:41:29.045Z,22.20
2023-04-22T19:43:59.452Z,22.20
2023-04-22T19:46:27.536Z,22.20
2023-04-22T19:48:58.454Z,22.10
2023-04-22T19:51:29.449Z,22.10
2023-04-22T19:54:02.249Z,22.10
2023-04-22T19:56:31.127Z,22.10
2023-04-22T19:59:00.535Z,22.10
2023-04-22T20:01:29.196Z,22.00
2023-04-22T20:03:59.902Z,22.00
2023-04-22T20:06:29.117Z,22.00
2023-04-22T20:08:59.451Z,22.00
2023-04-22T20:11:29.143Z,21.90
2023-04-22T20:13:57.556Z,21.90
2023-04-22T20:16:27.379Z,21.90
2023-04-22T20:18:56.095Z,21.90
2023-04-22T20:21:26.102Z,21.80
2023-04-22T20:23:57.359Z,21.80
2023-04-22T20:26:26.211Z,21.80
2023-04-22T20:28:55.158Z,21.70
2023-04-22T20:31:24.040Z,21.70
2023-04-22T20:33:52.643Z,21.70
2023-04-22T20:36:22.508Z,21.70
2023-04-22T20:38:55.354Z,21.70
2023-04-22T20:41:25.510Z,21.60
2023-04-22T20:43:53.639Z,21.60
2023-04-22T20:46:23.470Z,21.60
2023-04-22T20:48:51.681Z,21.60
2023-04-22T20:51:20.280Z,21.60
2023-04-22T20:53:49.038Z,21.50
2023-04-22T20:56:21.461Z,21.50
2023-04-22T20:58:49.542Z,21.50
2023-04-22T21:01:19.946Z,21.50
2023-04-22T21:03:53.082Z,21.50
2023-04-22T21:06:22.359Z,21.40
2023-04-22T21:08:51.644Z,21.40
2023-04-22T21:11:21.862Z,21.40
2023-04-22T21:13:51.350Z,21.30
2023-04-22T21:16:21.117Z,21.30
2023-04-22T21:18:50.569Z,21.30
2023-04-22T21:21:20.573Z,21.30
2023-04-22T21:23:49.732Z,21.30
2023-04-22T21:26:19.964Z,21.20
2023-04-22T21:28:49.795Z,21.20
2023-04-22T21:31:18.943Z,21.10
2023-04-22T21:33:47.017Z,21.10
2023-04-22T21:36:15.168Z,21.10
2023-04-22T21:38:43.797Z,21.00
2023-04-22T21:41:12.354Z,21.00
2023-04-22T21:43:41.769Z,21.00
2023-04-22T21:46:10.886Z,21.00
2023-04-22T21:48:38.924Z,20.90
2023-04-22T21:51:07.543Z,20.90
2023-04-22T21:53:36.115Z,20.90
2023-04-22T21:56:04.205Z,20.90
2023-04-22T21:58:32.734Z,20.90
2023-04-22T22:01:02.717Z,20.90
2023-04-22T22:03:32.136Z,20.80
2023-04-22T22:06:00.585Z,20.80
2023-04-22T22:08:28.718Z,20.80
2023-04-22T22:10:57.906Z,20.70
2023-04-22T22:13:26.245Z,20.80
2023-04-22T22:15:56.116Z,20.70
2023-04-22T22:18:25.551Z,20.70
2023-04-22T22:20:54.286Z,20.60
2023-04-22T22:23:23.014Z,20.50
2023-04-22T22:25:51.677Z,20.50
2023-04-22T22:28:19.739Z,20.50
2023-04-22T22:30:48.250Z,20.40
2023-04-22T22:33:16.389Z,20.40
2023-04-22T22:35:46.659Z,20.40
2023-04-22T22:38:14.734Z,20.30
2023-04-22T22:40:43.289Z,20.30
2023-04-22T22:43:12.457Z,20.30
2023-04-22T22:45:40.824Z,20.20
2023-04-22T22:48:09.438Z,20.20
2023-04-22T22:50:37.876Z,20.10
2023-04-22T22:53:07.899Z,20.00
2023-04-22T22:55:36.001Z,20.00
2023-04-22T22:58:04.564Z,19.90
2023-04-22T23:00:32.643Z,19.80
2023-04-22T23:03:00.897Z,19.80
2023-04-22T23:05:29.288Z,19.70
2023-04-22T23:07:57.348Z,19.60
2023-04-22T23:10:26.972Z,19.60
2023-04-22T23:12:55.072Z,19.50
2023-04-22T23:15:23.652Z,19.50
2023-04-22T23:17:51.792Z,19.40
2023-04-22T23:20:21.227Z,19.40
2023-04-22T23:22:52.049Z,19.30
2023-04-22T23:25:21.053Z,19.30
2023-04-22T23:27:51.292Z,19.20
2023-04-22T23:30:20.283Z,19.20
2023-04-22T23:32:49.297Z,19.10
2023-04-22T23:35:17.799Z,19.10
2023-04-22T23:37:46.858Z,19.10
2023-04-22T23:40:14.977Z,19.00
2023-04-22T23:42:43.496Z,19.00
2023-04-22T23:45:13.431Z,19.00
2023-04-22T23:47:42.425Z,18.90
2023-04-22T23:50:11.336Z,18.90
2023-04-22T23:52:41.665Z,18.90
2023-04-22T23:55:11.836Z,18.90
2023-04-22T23:57:40.818Z,18.90
